Time;durP1;ratioP1;P1;durP2;ratioP2;P2;SDS_P1;SDS_P2;PMS_P1;PMS_P2;Temp;Humidity;BMP_temperature;BMP_pressure;BME280_temperature;BME280_humidity;BME280_pressure;Samples;Min_cycle;Max_cycle;Signal;HPM_P1;HPM_P2
2023/05/20 00:00:06;;;;;;;11.77;8.07;;;;;;;;;;4978827;28;20023;-80
2023/05/20 00:02:32;;;;;;;11.77;7.70;;;;;;;;;;4994933;28;20029;-79
2023/05/20 00:04:57;;;;;;;10.30;8.35;;;;;;;;;;4994732;28;20543;-81
2023/05/20 00:07:23;;;;;;;11.48;8.57;;;;;;;;;;4994224;28;20053;-80
2023/05/20 00:09:48;;;;;;;11.48;9.05;;;;;;;;;;4978327;28;20091;-80
2023/05/20 00:12:13;;;;;;;10.93;8.18;;;;;;;;;;4994622;28;20465;-79
2023/05/20 00:14:39;;;;;;;11.35;8.70;;;;;;;;;;4979423;28;20030;-79
2023/05/20 00:17:04;;;;;;;15.13;9.45;;;;;;;;;;4994244;28;20092;-80
2023/05/20 00:19:29;;;;;;;14.63;8.60;;;;;;;;;;4993883;28;20062;-80
2023/05/20 00:21:56;;;;;;;16.60;8.75;;;;;;;;;;4979562;28;20110;-80
2023/05/20 00:24:22;;;;;;;10.65;8.45;;;;;;;;;;4978397;28;20030;-80
2023/05/20 00:26:47;;;;;;;18.08;9.07;;;;;;;;;;4980015;28;20033;-80
2023/05/20 00:29:12;;;;;;;12.43;9.15;;;;;;;;;;4979012;28;20035;-80
2023/05/20 00:31:38;;;;;;;10.85;7.85;;;;;;;;;;4978123;28;20061;-80
2023/05/20 00:34:03;;;;;;;12.30;8.48;;;;;;;;;;4977952;28;20097;-80
2023/05/20 00:36:28;;;;;;;11.63;7.85;;;;;;;;;;4977203;28;20039;-79
2023/05/20 00:38:54;;;;;;;11.82;8.00;;;;;;;;;;4978197;28;20011;-80
2023/05/20 00:41:20;;;;;;;9.98;8.43;;;;;;;;;;4979732;28;20038;-80
2023/05/20 00:43:45;;;;;;;12.55;9.27;;;;;;;;;;4977372;28;20130;-80
2023/05/20 00:46:11;;;;;;;13.68;9.65;;;;;;;;;;4977182;28;20038;-82
2023/05/20 00:48:42;;;;;;;12.32;9.90;;;;;;;;;;4978494;28;20039;-79
2023/05/20 00:51:09;;;;;;;14.55;9.60;;;;;;;;;;4994861;28;20030;-83
2023/05/20 00:53:35;;;;;;;15.73;9.07;;;;;;;;;;4995086;28;20517;-80
2023/05/20 00:56:01;;;;;;;11.73;9.57;;;;;;;;;;4977521;28;20038;-83
2023/05/20 00:58:26;;;;;;;19.58;10.32;;;;;;;;;;4977684;28;20061;-82
2023/05/20 01:00:52;;;;;;;14.95;9.57;;;;;;;;;;4978989;28;20027;-84
2023/05/20 01:03:17;;;;;;;14.05;9.95;;;;;;;;;;4993476;28;20389;-81
2023/05/20 01:05:43;;;;;;;16.75;9.85;;;;;;;;;;4994310;28;20683;-81
2023/05/20 01:08:08;;;;;;;18.30;11.20;;;;;;;;;;4993877;28;20038;-80
2023/05/20 01:10:38;;;;;;;17.77;10.80;;;;;;;;;;4977830;28;20035;-81
2023/05/20 01:13:07;;;;;;;15.02;10.88;;;;;;;;;;4977114;28;20038;-81
2023/05/20 01:15:34;;;;;;;16.45;10.73;;;;;;;;;;4977325;28;20031;-81
2023/05/20 01:18:04;;;;;;;15.77;11.07;;;;;;;;;;4994372;28;20019;-81
2023/05/20 01:20:31;;;;;;;20.60;10.27;;;;;;;;;;4977546;28;20073;-81
2023/05/20 01:22:56;;;;;;;14.95;11.15;;;;;;;;;;4977541;28;20397;-81
2023/05/20 01:25:23;;;;;;;16.42;11.10;;;;;;;;;;4976457;28;20042;-81
2023/05/20 01:27:50;;;;;;;15.55;9.73;;;;;;;;;;4978447;28;20054;-80
2023/05/20 01:30:16;;;;;;;12.88;9.70;;;;;;;;;;4976501;28;20026;-81
2023/05/20 01:32:49;;;;;;;15.23;10.60;;;;;;;;;;4978169;28;20038;-81
2023/05/20 01:35:15;;;;;;;19.25;10.35;;;;;;;;;;4978988;28;20030;-81
2023/05/20 01:37:41;;;;;;;22.83;10.90;;;;;;;;;;4975548;28;20497;-81
2023/05/20 01:40:08;;;;;;;28.77;10.73;;;;;;;;;;4976376;28;20038;-81
2023/05/20 01:42:34;;;;;;;14.85;10.48;;;;;;;;;;4978555;28;20034;-82
2023/05/20 01:45:00;;;;;;;15.18;10.70;;;;;;;;;;4978773;28;20024;-80
2023/05/20 01:47:25;;;;;;;13.32;10.25;;;;;;;;;;4993082;28;20027;-81
2023/05/20 01:49:52;;;;;;;16.20;10.00;;;;;;;;;;4978362;28;20031;-81
2023/05/20 01:52:19;;;;;;;13.20;8.93;;;;;;;;;;4978179;28;20031;-81
2023/05/20 01:54:49;;;;;;;16.10;8.80;;;;;;;;;;4993003;28;20129;-80
2023/05/20 01:57:16;;;;;;;14.98;9.27;;;;;;;;;;4992978;28;20106;-79
2023/05/20 01:59:41;;;;;;;15.32;10.50;;;;;;;;;;4993236;28;20101;-81
2023/05/20 02:02:06;;;;;;;16.58;9.88;;;;;;;;;;4976643;28;20461;-81
2023/05/20 02:04:31;;;;;;;12.93;10.00;;;;;;;;;;4992740;28;20077;-81
2023/05/20 02:06:57;;;;;;;11.60;9.65;;;;;;;;;;4976642;28;20027;-80
2023/05/20 02:09:22;;;;;;;15.32;9.88;;;;;;;;;;4978251;28;20034;-80
2023/05/20 02:11:47;;;;;;;14.27;10.63;;;;;;;;;;4976116;28;20041;-79
2023/05/20 02:14:13;;;;;;;14.80;10.98;;;;;;;;;;4976228;28;20041;-81
2023/05/20 02:16:38;;;;;;;11.88;9.88;;;;;;;;;;4978071;28;20054;-80
2023/05/20 02:19:03;;;;;;;15.48;11.18;;;;;;;;;;4976891;28;20027;-82
2023/05/20 02:21:28;;;;;;;15.82;11.15;;;;;;;;;;4976367;28;20031;-81
2023/05/20 02:23:54;;;;;;;15.38;11.07;;;;;;;;;;4977259;28;20430;-82
2023/05/20 02:26:19;;;;;;;13.70;10.15;;;;;;;;;;4975869;28;20031;-82
2023/05/20 02:28:45;;;;;;;14.27;10.50;;;;;;;;;;4977110;28;20086;-82
2023/05/20 02:31:11;;;;;;;12.85;9.85;;;;;;;;;;4977478;28;20042;-82
2023/05/20 02:33:37;;;;;;;18.55;10.40;;;;;;;;;;4991728;28;20039;-82
2023/05/20 02:36:03;;;;;;;15.18;11.18;;;;;;;;;;4975805;28;20374;-84
2023/05/20 02:38:30;;;;;;;17.33;10.77;;;;;;;;;;4976180;28;20026;-82
2023/05/20 02:40:57;;;;;;;15.02;10.70;;;;;;;;;;4976218;28;20031;-82
2023/05/20 02:43:23;;;;;;;18.55;12.57;;;;;;;;;;4975818;28;20031;-83
2023/05/20 02:45:48;;;;;;;20.23;13.70;;;;;;;;;;4977664;28;20038;-81
2023/05/20 02:48:13;;;;;;;20.13;13.20;;;;;;;;;;4976262;28;20033;-81
2023/05/20 02:50:39;;;;;;;18.08;12.98;;;;;;;;;;4993077;28;20038;-80
2023/05/20 02:53:04;;;;;;;21.95;13.55;;;;;;;;;;4977234;28;20035;-82
2023/05/20 02:55:33;;;;;;;16.95;11.95;;;;;;;;;;4992569;28;20058;-80
2023/05/20 02:57:58;;;;;;;20.92;13.57;;;;;;;;;;4978527;28;20071;-81
2023/05/20 03:00:24;;;;;;;18.00;13.30;;;;;;;;;;4978119;28;20148;-81
2023/05/20 03:02:49;;;;;;;18.50;13.68;;;;;;;;;;4977868;28;20026;-82
2023/05/20 03:05:14;;;;;;;19.58;14.25;;;;;;;;;;4976075;28;20572;-82
2023/05/20 03:07:40;;;;;;;17.88;12.30;;;;;;;;;;4975758;28;20039;-82
2023/05/20 03:10:06;;;;;;;18.98;12.52;;;;;;;;;;4976235;28;20022;-81
2023/05/20 03:12:32;;;;;;;20.30;13.57;;;;;;;;;;4992591;28;20031;-82
2023/05/20 03:14:58;;;;;;;21.88;13.55;;;;;;;;;;4976575;28;20038;-82
2023/05/20 03:17:23;;;;;;;25.13;14.55;;;;;;;;;;4977515;28;20035;-82
2023/05/20 03:19:48;;;;;;;21.85;14.02;;;;;;;;;;4976007;28;20035;-82
2023/05/20 03:22:14;;;;;;;19.42;13.13;;;;;;;;;;4976243;28;20038;-82
2023/05/20 03:24:39;;;;;;;22.85;14.55;;;;;;;;;;4983305;28;20034;-81
2023/05/20 03:27:05;;;;;;;24.45;14.18;;;;;;;;;;4977138;28;20027;-82
2023/05/20 03:29:32;;;;;;;20.15;13.43;;;;;;;;;;4973788;28;20114;-82
2023/05/20 03:31:57;;;;;;;21.63;13.82;;;;;;;;;;4976564;28;20049;-80
2023/05/20 03:34:23;;;;;;;20.55;13.57;;;;;;;;;;4975989;28;20038;-82
2023/05/20 03:36:50;;;;;;;20.23;13.43;;;;;;;;;;4976756;28;20034;-82
2023/05/20 03:39:15;;;;;;;19.52;13.93;;;;;;;;;;4975839;28;20019;-82
2023/05/20 03:41:40;;;;;;;21.13;13.65;;;;;;;;;;4991617;28;20018;-82
2023/05/20 03:44:06;;;;;;;23.90;13.63;;;;;;;;;;4975601;28;20055;-82
2023/05/20 03:46:33;;;;;;;21.73;14.52;;;;;;;;;;4977245;28;20035;-81
2023/05/20 03:48:58;;;;;;;23.77;14.20;;;;;;;;;;4979927;28;20089;-82
2023/05/20 03:51:23;;;;;;;22.48;14.07;;;;;;;;;;4980405;28;20034;-81
2023/05/20 03:53:48;;;;;;;26.33;14.00;;;;;;;;;;4980907;28;20117;-81
2023/05/20 03:56:14;;;;;;;21.45;12.63;;;;;;;;;;4979256;28;20109;-82
2023/05/20 03:58:39;;;;;;;22.33;13.15;;;;;;;;;;4983908;28;20042;-83
2023/05/20 04:01:05;;;;;;;22.33;13.70;;;;;;;;;;4979584;28;20034;-82
2023/05/20 04:03:30;;;;;;;18.05;12.32;;;;;;;;;;4980356;28;20367;-81
2023/05/20 04:05:55;;;;;;;20.13;13.65;;;;;;;;;;4980631;28;20050;-82
2023/05/20 04:08:24;;;;;;;28.98;15.27;;;;;;;;;;4987184;28;20038;-81
2023/05/20 04:10:50;;;;;;;18.88;12.35;;;;;;;;;;4978911;28;20062;-81
2023/05/20 04:13:15;;;;;;;19.80;13.23;;;;;;;;;;4995407;28;20038;-82
2023/05/20 04:15:40;;;;;;;24.65;14.68;;;;;;;;;;4978249;28;20047;-84
2023/05/20 04:18:06;;;;;;;22.52;14.13;;;;;;;;;;4979978;28;20058;-82
2023/05/20 04:20:32;;;;;;;21.60;14.15;;;;;;;;;;4995872;28;20027;-83
2023/05/20 04:22:57;;;;;;;19.27;13.15;;;;;;;;;;4978811;28;20042;-81
2023/05/20 04:25:24;;;;;;;21.67;14.10;;;;;;;;;;4978484;28;20039;-81
2023/05/20 04:27:52;;;;;;;22.17;14.38;;;;;;;;;;4979320;28;20537;-81
2023/05/20 04:30:18;;;;;;;21.52;13.82;;;;;;;;;;4979077;28;20129;-81
2023/05/20 04:32:44;;;;;;;20.80;13.18;;;;;;;;;;4978817;28;20054;-82
2023/05/20 04:35:12;;;;;;;23.38;13.35;;;;;;;;;;4993116;28;20572;-81
2023/05/20 04:37:37;;;;;;;19.48;12.40;;;;;;;;;;4993125;28;20093;-82
2023/05/20 04:40:05;;;;;;;23.73;12.18;;;;;;;;;;4985041;28;20030;-82
2023/05/20 04:42:32;;;;;;;18.83;12.75;;;;;;;;;;4978203;28;20043;-82
2023/05/20 04:45:00;;;;;;;17.80;11.13;;;;;;;;;;4977872;28;20021;-81
2023/05/20 04:47:27;;;;;;;19.92;12.77;;;;;;;;;;4993248;28;20046;-82
2023/05/20 04:49:52;;;;;;;22.20;13.80;;;;;;;;;;4993100;28;20038;-82
2023/05/20 04:52:17;;;;;;;22.05;12.27;;;;;;;;;;4978587;28;20031;-81
2023/05/20 04:54:43;;;;;;;18.17;12.80;;;;;;;;;;4977723;28;20027;-82
2023/05/20 04:57:08;;;;;;;18.05;11.88;;;;;;;;;;4978301;28;20023;-80
2023/05/20 04:59:33;;;;;;;18.02;11.75;;;;;;;;;;4977042;28;20119;-81
2023/05/20 05:01:59;;;;;;;15.95;11.40;;;;;;;;;;4978221;28;20054;-81
2023/05/20 05:04:24;;;;;;;18.52;12.48;;;;;;;;;;4977255;28;20046;-81
2023/05/20 05:06:49;;;;;;;19.23;13.52;;;;;;;;;;4976199;28;20414;-81
2023/05/20 05:09:15;;;;;;;19.15;13.07;;;;;;;;;;4978592;28;20102;-81
2023/05/20 05:11:40;;;;;;;16.08;11.52;;;;;;;;;;4993744;28;20501;-82
2023/05/20 05:14:05;;;;;;;19.67;12.27;;;;;;;;;;4992877;28;20031;-80
2023/05/20 05:16:31;;;;;;;17.02;11.60;;;;;;;;;;4976717;28;20571;-81
2023/05/20 05:18:56;;;;;;;18.80;12.10;;;;;;;;;;4976792;28;20125;-80
2023/05/20 05:21:21;;;;;;;16.27;12.35;;;;;;;;;;4973220;28;21040;-81
2023/05/20 05:23:47;;;;;;;15.65;11.70;;;;;;;;;;4973455;28;20034;-80
2023/05/20 05:26:12;;;;;;;20.77;13.38;;;;;;;;;;4974348;28;20031;-81
2023/05/20 05:28:40;;;;;;;21.30;13.65;;;;;;;;;;4973690;28;20521;-80
2023/05/20 05:31:06;;;;;;;26.15;13.85;;;;;;;;;;4975043;28;20146;-80
2023/05/20 05:33:31;;;;;;;19.75;13.88;;;;;;;;;;4973772;28;20042;-81
2023/05/20 05:36:00;;;;;;;21.90;14.10;;;;;;;;;;4981714;28;20026;-81
2023/05/20 05:38:26;;;;;;;24.23;13.65;;;;;;;;;;4975637;28;20527;-80
2023/05/20 05:40:51;;;;;;;22.20;13.25;;;;;;;;;;4978760;28;20038;-80
2023/05/20 05:43:17;;;;;;;23.45;13.20;;;;;;;;;;4976863;28;20090;-81
2023/05/20 05:45:42;;;;;;;19.60;12.40;;;;;;;;;;4972476;28;20031;-81
2023/05/20 05:48:07;;;;;;;24.00;13.18;;;;;;;;;;4975756;28;20050;-80
2023/05/20 05:50:33;;;;;;;22.05;12.77;;;;;;;;;;4972825;28;20464;-80
2023/05/20 05:52:58;;;;;;;20.35;12.80;;;;;;;;;;4975479;28;20086;-81
2023/05/20 05:55:23;;;;;;;19.00;12.55;;;;;;;;;;4974164;28;20125;-84
2023/05/20 05:57:50;;;;;;;19.45;13.55;;;;;;;;;;4978575;28;20280;-79
2023/05/20 06:00:15;;;;;;;26.30;13.68;;;;;;;;;;4975540;28;20027;-80
2023/05/20 06:02:41;;;;;;;18.55;12.77;;;;;;;;;;4984296;28;20022;-81
2023/05/20 06:05:07;;;;;;;20.45;13.27;;;;;;;;;;4982701;28;20034;-80
2023/05/20 06:07:32;;;;;;;21.58;12.95;;;;;;;;;;4981725;28;20034;-81
2023/05/20 06:09:57;;;;;;;19.60;12.88;;;;;;;;;;4994830;28;20410;-81
2023/05/20 06:12:22;;;;;;;19.52;12.70;;;;;;;;;;4977150;28;20070;-80
2023/05/20 06:14:48;;;;;;;19.98;12.60;;;;;;;;;;4979945;28;20054;-80
2023/05/20 06:17:13;;;;;;;20.80;12.65;;;;;;;;;;4976044;28;20031;-80
2023/05/20 06:19:39;;;;;;;20.45;12.63;;;;;;;;;;4979005;28;20066;-79
2023/05/20 06:22:04;;;;;;;18.77;12.32;;;;;;;;;;4977705;28;20035;-81
2023/05/20 06:24:30;;;;;;;22.63;12.68;;;;;;;;;;4979312;28;20042;-82
2023/05/20 06:26:55;;;;;;;20.83;13.65;;;;;;;;;;4976469;28;20115;-82
2023/05/20 06:29:21;;;;;;;23.60;13.85;;;;;;;;;;4979310;28;20117;-81
2023/05/20 06:31:46;;;;;;;24.25;14.45;;;;;;;;;;4994737;28;20034;-79
2023/05/20 06:34:11;;;;;;;21.15;14.80;;;;;;;;;;4976481;28;20058;-80
2023/05/20 06:36:36;;;;;;;28.35;14.15;;;;;;;;;;4982637;28;20118;-79
2023/05/20 06:39:03;;;;;;;22.38;14.32;;;;;;;;;;4980487;28;20026;-78
2023/05/20 06:41:28;;;;;;;19.70;13.65;;;;;;;;;;4978439;28;20027;-81
2023/05/20 06:43:53;;;;;;;24.27;13.93;;;;;;;;;;4978390;28;20086;-84
2023/05/20 06:46:19;;;;;;;21.75;12.80;;;;;;;;;;4977925;28;20027;-84
2023/05/20 06:48:44;;;;;;;21.90;13.20;;;;;;;;;;4977161;28;20045;-80
2023/05/20 06:51:09;;;;;;;21.73;14.13;;;;;;;;;;4986996;28;20029;-80
2023/05/20 06:53:35;;;;;;;23.10;13.75;;;;;;;;;;4993795;28;20037;-82
2023/05/20 06:56:01;;;;;;;26.67;14.25;;;;;;;;;;4997577;28;20065;-81
2023/05/20 06:58:27;;;;;;;21.63;14.23;;;;;;;;;;4989316;28;20039;-79
2023/05/20 07:00:52;;;;;;;18.63;12.63;;;;;;;;;;4988581;28;20049;-81
2023/05/20 07:03:17;;;;;;;19.77;13.52;;;;;;;;;;4985639;28;20058;-80
2023/05/20 07:05:43;;;;;;;20.98;13.15;;;;;;;;;;4987247;28;20105;-80
2023/05/20 07:08:08;;;;;;;16.52;12.25;;;;;;;;;;4981551;28;20039;-79
2023/05/20 07:10:34;;;;;;;18.35;12.13;;;;;;;;;;4979459;28;20045;-80
2023/05/20 07:12:59;;;;;;;17.23;12.18;;;;;;;;;;4974515;28;20079;-80
2023/05/20 07:15:24;;;;;;;18.70;12.98;;;;;;;;;;4974684;28;20185;-80
2023/05/20 07:17:50;;;;;;;19.65;12.75;;;;;;;;;;4972988;28;20482;-80
2023/05/20 07:20:15;;;;;;;17.88;12.75;;;;;;;;;;4973545;28;20043;-82
2023/05/20 07:22:41;;;;;;;17.58;11.93;;;;;;;;;;4977117;28;20121;-81
2023/05/20 07:25:07;;;;;;;18.10;11.32;;;;;;;;;;4977932;28;20041;-80
2023/05/20 07:27:32;;;;;;;19.77;12.35;;;;;;;;;;4979393;28;20035;-79
2023/05/20 07:29:57;;;;;;;17.98;11.45;;;;;;;;;;4989304;28;20027;-81
2023/05/20 07:32:23;;;;;;;21.38;12.25;;;;;;;;;;4983520;28;20378;-81
2023/05/20 07:34:48;;;;;;;17.48;11.05;;;;;;;;;;4977326;28;20043;-80
2023/05/20 07:37:13;;;;;;;21.00;11.68;;;;;;;;;;4985384;28;20534;-80
2023/05/20 07:39:39;;;;;;;16.73;11.07;;;;;;;;;;4978166;28;20046;-80
2023/05/20 07:42:04;;;;;;;16.65;10.55;;;;;;;;;;4985902;28;20022;-80
2023/05/20 07:44:30;;;;;;;16.02;10.32;;;;;;;;;;4980255;28;20201;-81
2023/05/20 07:46:55;;;;;;;14.48;10.15;;;;;;;;;;4978089;28;20122;-80
2023/05/20 07:49:21;;;;;;;14.73;9.52;;;;;;;;;;4979310;28;20503;-81
2023/05/20 07:51:46;;;;;;;19.90;11.15;;;;;;;;;;4980487;28;20043;-80
2023/05/20 07:54:11;;;;;;;17.50;11.50;;;;;;;;;;4977072;28;20025;-80
2023/05/20 07:56:37;;;;;;;16.98;11.20;;;;;;;;;;4981448;28;20034;-80
2023/05/20 07:59:02;;;;;;;15.02;11.18;;;;;;;;;;4993183;28;20027;-81
2023/05/20 08:01:28;;;;;;;18.65;10.00;;;;;;;;;;4978488;28;20039;-81
2023/05/20 08:03:53;;;;;;;15.70;10.63;;;;;;;;;;4977000;28;20058;-81
2023/05/20 08:06:19;;;;;;;14.35;10.35;;;;;;;;;;4976845;28;20015;-81
2023/05/20 08:08:45;;;;;;;16.17;11.10;;;;;;;;;;4976827;28;20098;-81
2023/05/20 08:11:10;;;;;;;14.85;10.77;;;;;;;;;;4980019;28;20034;-80
2023/05/20 08:13:35;;;;;;;13.52;10.35;;;;;;;;;;4978219;28;20041;-80
2023/05/20 08:16:02;;;;;;;14.75;10.70;;;;;;;;;;4974616;28;20038;-80
2023/05/20 08:18:28;;;;;;;12.80;9.20;;;;;;;;;;4975195;28;20049;-81
2023/05/20 08:20:54;;;;;;;16.17;10.45;;;;;;;;;;4979068;28;20388;-81
2023/05/20 08:23:19;;;;;;;13.70;9.93;;;;;;;;;;4978881;28;20035;-81
2023/05/20 08:25:47;;;;;;;17.95;12.45;;;;;;;;;;4977178;28;20027;-81
2023/05/20 08:28:13;;;;;;;17.02;10.55;;;;;;;;;;4977105;28;20117;-81
2023/05/20 08:30:38;;;;;;;14.73;10.07;;;;;;;;;;4977991;28;20071;-81
2023/05/20 08:33:04;;;;;;;14.13;10.45;;;;;;;;;;4978115;28;20049;-81
2023/05/20 08:35:29;;;;;;;15.15;9.60;;;;;;;;;;4980980;28;20061;-82
2023/05/20 08:37:55;;;;;;;13.48;9.45;;;;;;;;;;4978773;28;20031;-82
2023/05/20 08:40:21;;;;;;;17.08;10.15;;;;;;;;;;4979924;28;20122;-80
2023/05/20 08:42:48;;;;;;;14.13;10.73;;;;;;;;;;4973532;28;20034;-82
2023/05/20 08:45:16;;;;;;;15.90;9.88;;;;;;;;;;4980058;28;20037;-81
2023/05/20 08:47:42;;;;;;;11.63;8.52;;;;;;;;;;4977559;28;20031;-82
2023/05/20 08:50:10;;;;;;;10.63;7.88;;;;;;;;;;4979296;28;20070;-82
2023/05/20 08:52:37;;;;;;;12.82;9.02;;;;;;;;;;4978206;28;20045;-81
2023/05/20 08:55:06;;;;;;;11.10;8.82;;;;;;;;;;4977306;28;20026;-82
2023/05/20 08:57:32;;;;;;;12.57;8.00;;;;;;;;;;4978418;28;20062;-81
2023/05/20 08:59:58;;;;;;;13.93;8.65;;;;;;;;;;4973620;28;20569;-82
2023/05/20 09:02:24;;;;;;;13.35;9.23;;;;;;;;;;4959373;28;20178;-82
2023/05/20 09:04:50;;;;;;;12.45;8.82;;;;;;;;;;4977612;28;20063;-81
2023/05/20 09:07:28;;;;;;;11.30;8.43;;;;;;;;;;4977305;28;20037;-82
2023/05/20 09:09:53;;;;;;;15.23;9.52;;;;;;;;;;4992970;28;20035;-82
2023/05/20 09:12:20;;;;;;;11.52;7.53;;;;;;;;;;4978861;28;20031;-82
2023/05/20 09:14:45;;;;;;;8.30;7.10;;;;;;;;;;4993765;28;20027;-81
2023/05/20 09:17:11;;;;;;;11.55;8.18;;;;;;;;;;4977490;28;20050;-82
2023/05/20 09:19:37;;;;;;;9.77;7.63;;;;;;;;;;4967062;28;20047;-81
2023/05/20 09:22:03;;;;;;;10.82;7.82;;;;;;;;;;4978755;28;20401;-81
2023/05/20 09:24:29;;;;;;;13.05;7.72;;;;;;;;;;4996630;28;20035;-81
2023/05/20 09:26:55;;;;;;;11.25;7.50;;;;;;;;;;4997362;28;20504;-81
2023/05/20 09:29:20;;;;;;;10.32;7.88;;;;;;;;;;4996046;28;20053;-81
2023/05/20 09:31:46;;;;;;;11.25;8.18;;;;;;;;;;4996344;28;20037;-81
2023/05/20 09:34:12;;;;;;;9.45;7.40;;;;;;;;;;4997526;28;20030;-81
2023/05/20 09:36:38;;;;;;;10.60;7.30;;;;;;;;;;5013852;28;20037;-80
2023/05/20 09:39:06;;;;;;;8.60;6.82;;;;;;;;;;5005052;28;20053;-81
2023/05/20 09:41:37;;;;;;;10.35;6.95;;;;;;;;;;4998373;28;20085;-82
2023/05/20 09:44:05;;;;;;;8.25;6.70;;;;;;;;;;5013448;28;20038;-82
2023/05/20 09:46:33;;;;;;;9.90;7.57;;;;;;;;;;4994609;28;20050;-82
2023/05/20 09:48:58;;;;;;;9.77;6.50;;;;;;;;;;4997522;28;20085;-80
2023/05/20 09:51:25;;;;;;;8.80;6.40;;;;;;;;;;4998078;28;20026;-82
2023/05/20 09:53:51;;;;;;;9.57;6.70;;;;;;;;;;5012978;28;20378;-82
2023/05/20 09:56:18;;;;;;;11.98;6.32;;;;;;;;;;5012796;28;20076;-83
2023/05/20 09:58:44;;;;;;;10.43;5.75;;;;;;;;;;4983743;28;20042;-83
2023/05/20 10:01:10;;;;;;;6.25;5.43;;;;;;;;;;4986672;28;20022;-83
2023/05/20 10:03:35;;;;;;;9.70;6.63;;;;;;;;;;4996952;28;20022;-83
2023/05/20 10:06:45;;;;;;;8.07;5.65;;;;;;;;;;4989551;28;20037;-81
2023/05/20 10:09:27;;;;;;;9.63;6.07;;;;;;;;;;4995254;28;20126;-82
2023/05/20 10:11:58;;;;;;;7.43;6.00;;;;;;;;;;4997864;28;20061;-83
2023/05/20 10:14:53;;;;;;;7.78;5.85;;;;;;;;;;4995572;28;20145;-82
2023/05/20 10:17:51;;;;;;;7.35;5.57;;;;;;;;;;4995609;28;20560;-82
2023/05/20 10:20:17;;;;;;;9.50;5.00;;;;;;;;;;4999706;28;20030;-83
2023/05/20 10:22:44;;;;;;;5.93;4.68;;;;;;;;;;4982956;28;20030;-83
2023/05/20 10:25:23;;;;;;;9.30;5.40;;;;;;;;;;4976493;28;20027;-83
2023/05/20 10:27:48;;;;;;;7.78;5.80;;;;;;;;;;4983469;28;20038;-82
2023/05/20 10:30:20;;;;;;;5.78;5.13;;;;;;;;;;5011164;28;20435;-83
2023/05/20 10:32:55;;;;;;;7.93;5.38;;;;;;;;;;4995994;28;20173;-82
2023/05/20 10:35:27;;;;;;;7.50;5.43;;;;;;;;;;4999923;28;20089;-82
2023/05/20 10:37:54;;;;;;;8.65;6.53;;;;;;;;;;4965569;28;20397;-82
2023/05/20 10:40:21;;;;;;;7.28;5.53;;;;;;;;;;4976229;28;20482;-83
2023/05/20 10:42:47;;;;;;;7.50;5.82;;;;;;;;;;4975792;28;20086;-82
2023/05/20 10:45:26;;;;;;;7.45;5.45;;;;;;;;;;4975810;28;20019;-83
2023/05/20 10:47:56;;;;;;;7.32;4.95;;;;;;;;;;4984539;28;20027;-83
2023/05/20 10:50:32;;;;;;;5.88;4.95;;;;;;;;;;4969444;28;20047;-83
2023/05/20 10:53:05;;;;;;;7.63;5.55;;;;;;;;;;4979714;28;20119;-83
2023/05/20 10:55:48;;;;;;;8.02;5.70;;;;;;;;;;4992297;28;20039;-83
2023/05/20 10:58:13;;;;;;;9.95;5.88;;;;;;;;;;4996022;28;20030;-83
2023/05/20 11:00:39;;;;;;;9.27;5.25;;;;;;;;;;4980529;28;20563;-82
2023/05/20 11:03:06;;;;;;;8.60;5.70;;;;;;;;;;4995975;28;20022;-83
2023/05/20 11:05:32;;;;;;;7.93;5.45;;;;;;;;;;4997038;28;20031;-83
2023/05/20 11:08:06;;;;;;;9.73;6.22;;;;;;;;;;4980675;28;20090;-83
2023/05/20 11:10:33;;;;;;;9.60;6.28;;;;;;;;;;4981570;28;20057;-83
2023/05/20 11:13:00;;;;;;;6.38;5.38;;;;;;;;;;4996276;28;20086;-82
2023/05/20 11:15:26;;;;;;;9.38;5.10;;;;;;;;;;4981381;28;20046;-83
2023/05/20 11:17:55;;;;;;;6.45;5.38;;;;;;;;;;4996879;28;20054;-83
2023/05/20 11:20:24;;;;;;;6.65;5.18;;;;;;;;;;4980324;28;20545;-83
2023/05/20 11:22:50;;;;;;;8.23;5.55;;;;;;;;;;4996255;28;20113;-83
2023/05/20 11:25:17;;;;;;;8.00;6.10;;;;;;;;;;4980877;28;20034;-83
2023/05/20 11:27:43;;;;;;;10.10;5.63;;;;;;;;;;4995849;28;20027;-83
2023/05/20 11:30:10;;;;;;;6.70;5.07;;;;;;;;;;4995228;28;20149;-82
2023/05/20 11:32:36;;;;;;;7.03;5.35;;;;;;;;;;4995548;28;20039;-83
2023/05/20 11:35:01;;;;;;;6.28;5.07;;;;;;;;;;4980583;28;20039;-83
2023/05/20 11:37:26;;;;;;;9.75;5.05;;;;;;;;;;4996633;28;20047;-83
2023/05/20 11:40:12;;;;;;;5.50;4.90;;;;;;;;;;4980172;28;20500;-83
2023/05/20 11:42:37;;;;;;;4.57;4.15;;;;;;;;;;4978650;28;20151;-83
2023/05/20 11:45:03;;;;;;;6.57;4.60;;;;;;;;;;4979243;28;20039;-83
2023/05/20 11:47:28;;;;;;;5.20;4.25;;;;;;;;;;4980800;28;20106;-83
2023/05/20 11:49:57;;;;;;;4.95;4.45;;;;;;;;;;4979101;28;20042;-83
2023/05/20 11:52:22;;;;;;;6.78;4.55;;;;;;;;;;4979681;28;20039;-83
2023/05/20 11:54:53;;;;;;;5.85;4.55;;;;;;;;;;4979346;28;20039;-83
2023/05/20 11:57:19;;;;;;;4.95;4.20;;;;;;;;;;4979016;28;20019;-83
2023/05/20 11:59:45;;;;;;;4.82;4.13;;;;;;;;;;4995770;28;20023;-83
2023/05/20 12:02:11;;;;;;;4.70;4.28;;;;;;;;;;4981091;28;20108;-82
2023/05/20 12:04:36;;;;;;;4.97;4.22;;;;;;;;;;4981015;28;20035;-82
2023/05/20 12:07:02;;;;;;;6.35;4.55;;;;;;;;;;4974823;28;20065;-83
2023/05/20 12:09:28;;;;;;;5.00;4.18;;;;;;;;;;4968849;28;20031;-82
2023/05/20 12:11:55;;;;;;;7.05;3.92;;;;;;;;;;4995843;28;20109;-82
2023/05/20 12:14:20;;;;;;;6.55;3.40;;;;;;;;;;4978800;28;20065;-83
2023/05/20 12:16:46;;;;;;;5.68;3.67;;;;;;;;;;4995208;28;20038;-82
2023/05/20 12:19:11;;;;;;;5.13;4.03;;;;;;;;;;4983561;28;20031;-83
2023/05/20 12:21:36;;;;;;;3.95;3.53;;;;;;;;;;4979273;28;20030;-82
2023/05/20 12:24:04;;;;;;;3.65;3.33;;;;;;;;;;4980860;28;20022;-83
2023/05/20 12:26:30;;;;;;;4.05;3.35;;;;;;;;;;4995826;28;20049;-83
2023/05/20 12:28:55;;;;;;;3.67;3.38;;;;;;;;;;4979655;28;20035;-79
2023/05/20 12:31:21;;;;;;;3.60;3.30;;;;;;;;;;4993462;28;20035;-79
2023/05/20 12:33:46;;;;;;;4.38;2.80;;;;;;;;;;4977495;28;20583;-81
2023/05/20 12:36:12;;;;;;;4.18;3.42;;;;;;;;;;4976795;28;20031;-80
2023/05/20 12:38:37;;;;;;;6.85;3.17;;;;;;;;;;4985281;28;20022;-80
2023/05/20 12:41:03;;;;;;;7.93;3.55;;;;;;;;;;4977536;28;20485;-80
2023/05/20 12:43:29;;;;;;;3.05;2.60;;;;;;;;;;4977195;28;20035;-80
2023/05/20 12:45:54;;;;;;;3.90;3.00;;;;;;;;;;4976801;28;20039;-80
2023/05/20 12:48:20;;;;;;;3.20;2.90;;;;;;;;;;4976118;28;20038;-80
2023/05/20 12:50:45;;;;;;;4.15;2.95;;;;;;;;;;4991457;28;20064;-80
2023/05/20 12:53:10;;;;;;;3.88;2.60;;;;;;;;;;4977083;28;20117;-78
2023/05/20 12:55:36;;;;;;;6.78;2.75;;;;;;;;;;4965631;28;20043;-78
2023/05/20 12:58:01;;;;;;;3.97;2.50;;;;;;;;;;4973984;28;20441;-77
2023/05/20 13:00:26;;;;;;;2.78;2.58;;;;;;;;;;4975830;28;20034;-77
2023/05/20 13:02:52;;;;;;;3.22;2.55;;;;;;;;;;4979360;28;20033;-77
2023/05/20 13:05:17;;;;;;;5.55;3.20;;;;;;;;;;4972275;28;20490;-77
2023/05/20 13:07:43;;;;;;;5.50;2.58;;;;;;;;;;4971939;28;20325;-77
2023/05/20 13:10:10;;;;;;;2.53;2.33;;;;;;;;;;4972609;28;20035;-78
2023/05/20 13:12:35;;;;;;;2.70;2.50;;;;;;;;;;4972789;28;20058;-78
2023/05/20 13:15:01;;;;;;;3.08;2.58;;;;;;;;;;4974329;28;20072;-78
2023/05/20 13:17:27;;;;;;;2.67;2.30;;;;;;;;;;4973020;28;20126;-78
2023/05/20 13:19:52;;;;;;;2.55;2.20;;;;;;;;;;4974136;28;20062;-78
2023/05/20 13:22:18;;;;;;;4.82;2.40;;;;;;;;;;4987511;28;20043;-78
2023/05/20 13:24:43;;;;;;;4.63;2.60;;;;;;;;;;4972481;28;20154;-78
2023/05/20 13:27:09;;;;;;;2.95;2.65;;;;;;;;;;4974634;28;20390;-77
2023/05/20 13:29:34;;;;;;;4.00;2.20;;;;;;;;;;4972588;28;20030;-77
2023/05/20 13:31:59;;;;;;;4.75;2.30;;;;;;;;;;4973321;28;20031;-77
2023/05/20 13:34:24;;;;;;;5.35;2.58;;;;;;;;;;4973154;28;20035;-77
2023/05/20 13:36:50;;;;;;;3.70;2.45;;;;;;;;;;4972685;28;20039;-78
2023/05/20 13:39:15;;;;;;;2.90;2.47;;;;;;;;;;4972149;28;20027;-77
2023/05/20 13:41:41;;;;;;;2.55;2.33;;;;;;;;;;4973342;28;20045;-78
2023/05/20 13:44:07;;;;;;;2.65;2.40;;;;;;;;;;4969657;28;20039;-77
2023/05/20 13:46:32;;;;;;;2.67;2.47;;;;;;;;;;4969043;28;20047;-77
2023/05/20 13:48:58;;;;;;;4.95;2.60;;;;;;;;;;4972026;28;20097;-78
2023/05/20 13:51:23;;;;;;;3.17;2.55;;;;;;;;;;4972190;28;20062;-77
2023/05/20 13:53:48;;;;;;;6.43;2.40;;;;;;;;;;4972719;28;20037;-77
2023/05/20 13:56:14;;;;;;;2.63;2.42;;;;;;;;;;4970955;28;20034;-77
2023/05/20 13:58:39;;;;;;;2.97;2.25;;;;;;;;;;4969987;28;20074;-77
2023/05/20 14:01:05;;;;;;;2.83;2.63;;;;;;;;;;4972885;28;20090;-77
2023/05/20 14:03:31;;;;;;;4.10;2.50;;;;;;;;;;4972099;28;20038;-78
2023/05/20 14:05:57;;;;;;;5.03;2.40;;;;;;;;;;4972073;28;20485;-77
2023/05/20 14:08:23;;;;;;;4.57;2.60;;;;;;;;;;4972000;28;20094;-78
2023/05/20 14:10:48;;;;;;;5.55;2.53;;;;;;;;;;4970952;28;20541;-78
2023/05/20 14:13:14;;;;;;;4.80;2.33;;;;;;;;;;4971638;28;20105;-78
2023/05/20 14:15:39;;;;;;;6.43;2.92;;;;;;;;;;4971155;28;20054;-78
2023/05/20 14:18:04;;;;;;;2.58;2.38;;;;;;;;;;4972407;28;20023;-77
2023/05/20 14:20:30;;;;;;;2.90;2.63;;;;;;;;;;4972235;28;20643;-78
2023/05/20 14:22:55;;;;;;;2.70;2.50;;;;;;;;;;4970657;28;20049;-78